Time;durP1;ratioP1;P1;durP2;ratioP2;P2;SDS_P1;SDS_P2;PMS_P1;PMS_P2;Temp;Humidity;BMP_temperature;BMP_pressure;BME280_temperature;BME280_humidity;BME280_pressure;Samples;Min_cycle;Max_cycle;Signal;HPM_P1;HPM_P2
2024/04/02 00:01:46;;;;;;;1.37;1.20;;;;;;;;;;5092996;28;20163;-58
2024/04/02 00:04:13;;;;;;;1.20;1.10;;;;;;;;;;5092777;28;20887;-58
2024/04/02 00:06:39;;;;;;;1.20;1.10;;;;;;;;;;5092521;28;20203;-58
2024/04/02 00:09:05;;;;;;;1.87;1.30;;;;;;;;;;5092239;28;20659;-59
2024/04/02 00:11:31;;;;;;;1.93;1.40;;;;;;;;;;5093005;28;20168;-58
2024/04/02 00:13:58;;;;;;;1.90;1.20;;;;;;;;;;5092396;28;20572;-59
2024/04/02 00:16:24;;;;;;;2.20;2.10;;;;;;;;;;5092566;28;20255;-59
2024/04/02 00:18:50;;;;;;;3.33;1.40;;;;;;;;;;5092653;28;20769;-58
2024/04/02 00:21:16;;;;;;;1.63;1.53;;;;;;;;;;5092102;28;20163;-59
2024/04/02 00:23:42;;;;;;;1.40;1.30;;;;;;;;;;5092416;28;20223;-59
2024/04/02 00:26:08;;;;;;;2.10;1.30;;;;;;;;;;5092356;28;20168;-58
2024/04/02 00:28:34;;;;;;;1.43;1.20;;;;;;;;;;5092115;28;20535;-58
2024/04/02 00:31:01;;;;;;;1.67;1.20;;;;;;;;;;5092505;28;20253;-59
2024/04/02 00:33:28;;;;;;;1.30;1.13;;;;;;;;;;5092557;28;20171;-58
2024/04/02 00:36:04;;;;;;;1.83;1.47;;;;;;;;;;5091917;28;20490;-59
2024/04/02 00:38:30;;;;;;;2.63;1.40;;;;;;;;;;5091650;28;20178;-58
2024/04/02 00:40:56;;;;;;;1.73;1.27;;;;;;;;;;5092313;28;20255;-58
2024/04/02 00:43:23;;;;;;;1.30;1.20;;;;;;;;;;5091635;28;20164;-59
2024/04/02 00:45:49;;;;;;;1.10;1.10;;;;;;;;;;5092320;28;20584;-58
2024/04/02 00:48:15;;;;;;;1.67;1.50;;;;;;;;;;5091613;28;20195;-59
2024/04/02 00:50:41;;;;;;;1.20;1.10;;;;;;;;;;5091877;28;20321;-59
2024/04/02 00:53:07;;;;;;;1.30;1.20;;;;;;;;;;5091649;28;20576;-59
2024/04/02 00:55:37;;;;;;;1.50;1.40;;;;;;;;;;5092310;28;20612;-59
2024/04/02 00:58:03;;;;;;;1.38;1.27;;;;;;;;;;5090188;28;20401;-58
2024/04/02 01:00:30;;;;;;;1.20;1.10;;;;;;;;;;5090532;28;20168;-58
2024/04/02 01:02:56;;;;;;;1.63;1.10;;;;;;;;;;5091716;28;20168;-59
2024/04/02 01:05:22;;;;;;;1.53;1.40;;;;;;;;;;5091317;28;20530;-58
2024/04/02 01:07:48;;;;;;;1.17;1.00;;;;;;;;;;5091598;28;20226;-59
2024/04/02 01:10:14;;;;;;;1.00;1.00;;;;;;;;;;5091573;28;20203;-59
2024/04/02 01:12:40;;;;;;;1.13;1.00;;;;;;;;;;5092054;28;20176;-58
2024/04/02 01:15:06;;;;;;;1.00;1.00;;;;;;;;;;5091318;28;20191;-59
2024/04/02 01:17:32;;;;;;;1.20;1.07;;;;;;;;;;5091725;28;20195;-59
2024/04/02 01:19:58;;;;;;;1.60;1.50;;;;;;;;;;5090977;28;20271;-59
2024/04/02 01:22:24;;;;;;;1.17;1.10;;;;;;;;;;5091583;28;20219;-59
2024/04/02 01:24:55;;;;;;;2.23;1.13;;;;;;;;;;5091164;28;20283;-59
2024/04/02 01:27:21;;;;;;;1.43;1.33;;;;;;;;;;5091928;28;20207;-59
2024/04/02 01:29:47;;;;;;;1.50;1.10;;;;;;;;;;5090763;28;20528;-59
2024/04/02 01:32:13;;;;;;;1.70;1.17;;;;;;;;;;5091772;28;20200;-59
2024/04/02 01:34:39;;;;;;;1.07;1.03;;;;;;;;;;5091389;28;20615;-59
2024/04/02 01:37:05;;;;;;;2.33;1.10;;;;;;;;;;5090594;28;20336;-58
2024/04/02 01:39:31;;;;;;;2.07;1.13;;;;;;;;;;5090913;28;20222;-59
2024/04/02 01:41:57;;;;;;;1.47;1.03;;;;;;;;;;5091473;28;20519;-59
2024/04/02 01:44:23;;;;;;;1.20;1.10;;;;;;;;;;5090623;28;20182;-59
2024/04/02 01:46:49;;;;;;;1.30;1.20;;;;;;;;;;5091180;28;20187;-59
2024/04/02 01:49:15;;;;;;;1.57;1.17;;;;;;;;;;5091033;28;20190;-59
2024/04/02 01:51:42;;;;;;;1.57;1.30;;;;;;;;;;5116480;27;20198;-59
2024/04/02 01:54:08;;;;;;;1.90;1.20;;;;;;;;;;5131362;27;20175;-65
2024/04/02 01:56:34;;;;;;;1.40;1.13;;;;;;;;;;5131652;27;20151;-59
2024/04/02 01:59:00;;;;;;;1.43;1.20;;;;;;;;;;5131156;27;20191;-59
2024/04/02 02:01:26;;;;;;;1.97;1.33;;;;;;;;;;5131804;27;20202;-59
2024/04/02 02:03:52;;;;;;;1.30;1.10;;;;;;;;;;5131262;27;20154;-59
2024/04/02 02:06:18;;;;;;;1.33;1.13;;;;;;;;;;5131481;27;20632;-60
2024/04/02 02:08:44;;;;;;;1.10;1.10;;;;;;;;;;5130832;27;20202;-59
2024/04/02 02:11:10;;;;;;;1.00;0.90;;;;;;;;;;5131347;27;20188;-59
2024/04/02 02:13:36;;;;;;;1.67;1.35;;;;;;;;;;5129744;27;20389;-59
2024/04/02 02:16:03;;;;;;;1.30;1.10;;;;;;;;;;5131348;27;20232;-59
2024/04/02 02:18:29;;;;;;;1.20;1.10;;;;;;;;;;5131328;27;20194;-59
2024/04/02 02:20:56;;;;;;;1.20;1.10;;;;;;;;;;5130892;27;20181;-59
2024/04/02 02:23:22;;;;;;;3.63;1.60;;;;;;;;;;5130660;27;20757;-59
2024/04/02 02:25:48;;;;;;;1.20;1.07;;;;;;;;;;5130909;27;20515;-59
2024/04/02 02:28:14;;;;;;;1.23;1.10;;;;;;;;;;5130686;27;20576;-58
2024/04/02 02:30:40;;;;;;;0.93;0.90;;;;;;;;;;5130931;27;20175;-59
2024/04/02 02:33:06;;;;;;;1.67;1.30;;;;;;;;;;5131233;27;20186;-59
2024/04/02 02:35:32;;;;;;;1.37;1.13;;;;;;;;;;5130289;27;20255;-59
2024/04/02 02:37:58;;;;;;;2.03;1.20;;;;;;;;;;5090338;27;20623;-56
2024/04/02 02:40:24;;;;;;;1.97;1.47;;;;;;;;;;5089740;28;20164;-55
2024/04/02 02:42:51;;;;;;;4.30;1.30;;;;;;;;;;5089908;28;20217;-55
2024/04/02 02:45:17;;;;;;;1.87;1.30;;;;;;;;;;5089186;28;20196;-56
2024/04/02 02:47:43;;;;;;;1.10;1.00;;;;;;;;;;5089964;28;20200;-55
2024/04/02 02:50:09;;;;;;;4.00;1.30;;;;;;;;;;5089209;28;20164;-57
2024/04/02 02:52:36;;;;;;;1.93;1.10;;;;;;;;;;5089964;28;20213;-57
2024/04/02 02:55:02;;;;;;;1.73;1.20;;;;;;;;;;5089479;28;20599;-55
2024/04/02 02:57:28;;;;;;;6.07;1.30;;;;;;;;;;5089606;28;20176;-56
2024/04/02 02:59:54;;;;;;;3.97;1.07;;;;;;;;;;5089056;28;20170;-57
2024/04/02 03:02:20;;;;;;;1.93;1.20;;;;;;;;;;5090193;28;20259;-55
2024/04/02 03:04:50;;;;;;;1.43;1.00;;;;;;;;;;5089680;28;20160;-56
2024/04/02 03:07:16;;;;;;;1.90;1.20;;;;;;;;;;5089833;28;20195;-57
2024/04/02 03:09:42;;;;;;;2.03;1.37;;;;;;;;;;5089291;28;20210;-56
2024/04/02 03:12:08;;;;;;;0.83;0.83;;;;;;;;;;5089752;28;20254;-58
2024/04/02 03:14:34;;;;;;;1.30;1.20;;;;;;;;;;5089237;28;20209;-57
2024/04/02 03:17:00;;;;;;;2.83;2.47;;;;;;;;;;5089713;28;20674;-57
2024/04/02 03:19:29;;;;;;;1.53;1.20;;;;;;;;;;5089648;28;20279;-55
2024/04/02 03:21:55;;;;;;;1.07;0.97;;;;;;;;;;5089739;28;20655;-56
2024/04/02 03:24:21;;;;;;;1.67;1.20;;;;;;;;;;5093425;28;20203;-54
2024/04/02 03:26:47;;;;;;;3.23;1.30;;;;;;;;;;5093487;28;20195;-55
2024/04/02 03:29:13;;;;;;;1.37;1.27;;;;;;;;;;5093581;28;20615;-56
2024/04/02 03:31:39;;;;;;;2.10;2.00;;;;;;;;;;5093654;28;20159;-55
2024/04/02 03:34:05;;;;;;;3.37;1.10;;;;;;;;;;5093676;28;20160;-55
2024/04/02 03:36:31;;;;;;;3.43;1.33;;;;;;;;;;5093159;28;20637;-55
2024/04/02 03:38:57;;;;;;;1.90;1.20;;;;;;;;;;5092962;28;20182;-55
2024/04/02 03:41:23;;;;;;;1.33;1.10;;;;;;;;;;5093577;28;20882;-55
2024/04/02 03:43:49;;;;;;;1.33;1.07;;;;;;;;;;5093194;28;20259;-55
2024/04/02 03:46:15;;;;;;;0.90;0.90;;;;;;;;;;5093499;28;20160;-56
2024/04/02 03:48:43;;;;;;;1.67;1.20;;;;;;;;;;5093289;28;20666;-55
2024/04/02 03:51:09;;;;;;;1.70;1.23;;;;;;;;;;5092589;28;20160;-56
2024/04/02 03:53:35;;;;;;;1.87;1.33;;;;;;;;;;5093159;28;20655;-55
2024/04/02 03:56:02;;;;;;;1.17;1.10;;;;;;;;;;5093015;28;20168;-55
2024/04/02 03:58:29;;;;;;;2.77;1.60;;;;;;;;;;5092615;28;20187;-55
2024/04/02 04:00:55;;;;;;;1.87;1.20;;;;;;;;;;5093138;28;20704;-55
2024/04/02 04:03:21;;;;;;;2.00;1.80;;;;;;;;;;5093255;28;20164;-55
2024/04/02 04:05:47;;;;;;;2.63;1.17;;;;;;;;;;5074171;28;20622;-61
2024/04/02 04:08:13;;;;;;;2.60;1.00;;;;;;;;;;5092572;28;20206;-55
2024/04/02 04:10:39;;;;;;;1.27;1.10;;;;;;;;;;5092724;28;20164;-55
2024/04/02 04:13:05;;;;;;;1.53;1.00;;;;;;;;;;5093159;28;20172;-55
2024/04/02 04:15:31;;;;;;;1.23;1.13;;;;;;;;;;5092354;28;20213;-55
2024/04/02 04:17:57;;;;;;;1.13;1.00;;;;;;;;;;5092494;28;20219;-57
2024/04/02 04:20:29;;;;;;;1.80;1.20;;;;;;;;;;5091944;28;20220;-58
2024/04/02 04:22:55;;;;;;;1.83;1.33;;;;;;;;;;5092295;28;20686;-59
2024/04/02 04:25:21;;;;;;;1.90;1.53;;;;;;;;;;5092428;28;20391;-58
2024/04/02 04:27:47;;;;;;;1.23;1.13;;;;;;;;;;5092332;28;20225;-58
2024/04/02 04:30:13;;;;;;;1.47;1.20;;;;;;;;;;5092046;28;20157;-56
2024/04/02 04:32:40;;;;;;;1.60;1.50;;;;;;;;;;5092515;28;20588;-56
2024/04/02 04:35:06;;;;;;;1.87;1.10;;;;;;;;;;5091784;28;20625;-56
2024/04/02 04:37:32;;;;;;;4.07;1.30;;;;;;;;;;5092528;28;20237;-56
2024/04/02 04:39:58;;;;;;;1.67;1.50;;;;;;;;;;5091676;28;20194;-56
2024/04/02 04:42:24;;;;;;;1.40;1.30;;;;;;;;;;5092313;28;20195;-56
2024/04/02 04:44:51;;;;;;;3.70;1.57;;;;;;;;;;5091601;28;20176;-55
2024/04/02 04:47:17;;;;;;;2.97;1.23;;;;;;;;;;5091977;28;20286;-56
2024/04/02 04:49:43;;;;;;;1.73;1.37;;;;;;;;;;5092274;28;20276;-56
2024/04/02 04:52:09;;;;;;;3.03;1.70;;;;;;;;;;5091689;28;20156;-56
2024/04/02 04:54:35;;;;;;;3.20;1.87;;;;;;;;;;5091707;28;20152;-56
2024/04/02 04:57:02;;;;;;;1.23;1.13;;;;;;;;;;5092205;28;20175;-54
2024/04/02 04:59:28;;;;;;;2.77;1.40;;;;;;;;;;5091469;28;20163;-55
2024/04/02 05:01:54;;;;;;;4.70;1.73;;;;;;;;;;5092078;28;20168;-56
2024/04/02 05:04:20;;;;;;;1.23;1.13;;;;;;;;;;5092120;28;20176;-56
2024/04/02 05:06:47;;;;;;;2.37;1.30;;;;;;;;;;5091279;28;20183;-56
2024/04/02 05:09:13;;;;;;;3.90;1.43;;;;;;;;;;5091677;28;20269;-55
2024/04/02 05:11:40;;;;;;;1.93;1.50;;;;;;;;;;5091449;28;20156;-55
2024/04/02 05:14:06;;;;;;;3.23;1.23;;;;;;;;;;5090299;28;20254;-55
2024/04/02 05:16:34;;;;;;;1.13;1.10;;;;;;;;;;5090127;28;20297;-55
2024/04/02 05:19:01;;;;;;;2.63;1.40;;;;;;;;;;5072687;28;20542;-55
2024/04/02 05:21:27;;;;;;;1.57;1.23;;;;;;;;;;5091169;28;20164;-56
2024/04/02 05:23:53;;;;;;;1.63;1.20;;;;;;;;;;5090921;28;20315;-54
2024/04/02 05:26:20;;;;;;;2.17;1.50;;;;;;;;;;5091490;28;20244;-55
2024/04/02 05:28:46;;;;;;;1.37;1.27;;;;;;;;;;5090921;28;20245;-58
2024/04/02 05:31:12;;;;;;;1.87;1.30;;;;;;;;;;5091107;28;20671;-56
2024/04/02 05:33:38;;;;;;;1.50;1.40;;;;;;;;;;5091247;28;20179;-56
2024/04/02 05:36:04;;;;;;;2.50;1.20;;;;;;;;;;5090674;28;20180;-56
2024/04/02 05:38:30;;;;;;;1.50;1.10;;;;;;;;;;5072610;28;20187;-54
2024/04/02 05:40:56;;;;;;;2.23;1.10;;;;;;;;;;5091074;28;20185;-55
2024/04/02 05:43:25;;;;;;;1.40;1.20;;;;;;;;;;5109701;27;20189;-55
2024/04/02 05:45:51;;;;;;;1.33;1.23;;;;;;;;;;5111144;28;20513;-55
2024/04/02 05:48:17;;;;;;;1.20;1.10;;;;;;;;;;5111348;28;20195;-55
2024/04/02 05:50:43;;;;;;;2.13;1.27;;;;;;;;;;5110754;28;20152;-55
2024/04/02 05:53:09;;;;;;;1.80;1.70;;;;;;;;;;5110742;28;20170;-55
2024/04/02 05:55:35;;;;;;;2.30;1.30;;;;;;;;;;5111434;28;20657;-55
2024/04/02 05:58:01;;;;;;;2.07;1.10;;;;;;;;;;5111124;28;20646;-55
2024/04/02 06:00:30;;;;;;;1.93;1.30;;;;;;;;;;5110456;28;20168;-57
2024/04/02 06:02:56;;;;;;;3.23;1.40;;;;;;;;;;5110737;28;20223;-55
2024/04/02 06:05:23;;;;;;;1.50;1.13;;;;;;;;;;5110634;28;20167;-57
2024/04/02 06:07:54;;;;;;;2.07;1.03;;;;;;;;;;5110331;28;20191;-58
2024/04/02 06:10:20;;;;;;;2.53;1.40;;;;;;;;;;5110992;28;20167;-58
2024/04/02 06:12:46;;;;;;;1.53;1.43;;;;;;;;;;5110637;28;20182;-60
2024/04/02 06:15:12;;;;;;;2.77;1.20;;;;;;;;;;5110693;28;20163;-57
2024/04/02 06:17:39;;;;;;;2.13;1.27;;;;;;;;;;5110512;28;20203;-55
2024/04/02 06:20:05;;;;;;;2.30;1.60;;;;;;;;;;5110701;28;20155;-55
2024/04/02 06:22:32;;;;;;;1.80;1.50;;;;;;;;;;5110373;28;20262;-55
2024/04/02 06:24:59;;;;;;;2.50;1.73;;;;;;;;;;5110207;28;20635;-55
2024/04/02 06:27:25;;;;;;;2.00;1.20;;;;;;;;;;5110700;28;20687;-56
2024/04/02 06:29:52;;;;;;;3.93;1.50;;;;;;;;;;5109796;28;20259;-56
2024/04/02 06:32:18;;;;;;;4.50;1.73;;;;;;;;;;5110812;28;20163;-58
2024/04/02 06:34:44;;;;;;;3.47;1.70;;;;;;;;;;5110371;28;20296;-58
2024/04/02 06:37:10;;;;;;;4.20;1.80;;;;;;;;;;5096806;28;20218;-58
2024/04/02 06:39:36;;;;;;;1.67;1.40;;;;;;;;;;5089745;28;20198;-56
2024/04/02 06:42:02;;;;;;;3.03;1.73;;;;;;;;;;5089747;28;20611;-55
2024/04/02 06:44:28;;;;;;;4.43;1.70;;;;;;;;;;5089406;28;20202;-57
2024/04/02 06:46:54;;;;;;;4.23;2.27;;;;;;;;;;5089685;28;20195;-57
2024/04/02 06:49:20;;;;;;;4.17;1.97;;;;;;;;;;5090009;28;20172;-56
2024/04/02 06:51:48;;;;;;;5.57;2.53;;;;;;;;;;5089498;28;20632;-58
2024/04/02 06:54:14;;;;;;;2.60;1.70;;;;;;;;;;5089295;28;20638;-56
2024/04/02 06:56:40;;;;;;;3.10;1.70;;;;;;;;;;5088779;28;20226;-56
2024/04/02 06:59:06;;;;;;;5.27;2.20;;;;;;;;;;5089370;28;20687;-57
2024/04/02 07:01:32;;;;;;;5.40;2.20;;;;;;;;;;5089728;28;20239;-57
2024/04/02 07:03:58;;;;;;;7.83;2.03;;;;;;;;;;5089320;28;20184;-57
2024/04/02 07:06:27;;;;;;;4.17;2.07;;;;;;;;;;5089153;28;20152;-56
2024/04/02 07:08:53;;;;;;;3.87;1.90;;;;;;;;;;5089226;28;20245;-56
2024/04/02 07:11:19;;;;;;;2.83;1.73;;;;;;;;;;5089793;28;20611;-56
2024/04/02 07:13:45;;;;;;;5.73;2.10;;;;;;;;;;5089060;28;20194;-56
2024/04/02 07:16:11;;;;;;;4.93;1.67;;;;;;;;;;5089521;28;20217;-57
2024/04/02 07:18:37;;;;;;;4.07;1.97;;;;;;;;;;5089679;28;20200;-57
2024/04/02 07:21:04;;;;;;;8.67;2.80;;;;;;;;;;5089338;28;20171;-57
2024/04/02 07:23:30;;;;;;;9.03;2.60;;;;;;;;;;5089134;28;20231;-57
2024/04/02 07:25:56;;;;;;;2.10;1.53;;;;;;;;;;5089505;28;20164;-57
2024/04/02 07:28:22;;;;;;;3.33;1.73;;;;;;;;;;5088924;28;20206;-58
2024/04/02 07:30:49;;;;;;;4.37;1.53;;;;;;;;;;5089403;28;20194;-57
2024/04/02 07:33:15;;;;;;;4.37;1.60;;;;;;;;;;5089571;28;20529;-58
2024/04/02 07:35:42;;;;;;;5.10;2.00;;;;;;;;;;5088784;28;20180;-57
2024/04/02 07:38:08;;;;;;;5.97;2.33;;;;;;;;;;5089063;28;20573;-57
2024/04/02 07:40:35;;;;;;;4.60;1.87;;;;;;;;;;5089568;28;20168;-59
2024/04/02 07:43:01;;;;;;;3.27;1.43;;;;;;;;;;5089446;28;20182;-57
2024/04/02 07:45:28;;;;;;;5.13;1.97;;;;;;;;;;5088885;28;20178;-58
2024/04/02 07:47:54;;;;;;;2.93;1.60;;;;;;;;;;5089125;28;20234;-58
2024/04/02 07:50:20;;;;;;;6.43;2.17;;;;;;;;;;5088971;28;20160;-58
2024/04/02 07:52:46;;;;;;;5.30;2.20;;;;;;;;;;5088668;28;20160;-58
2024/04/02 07:55:12;;;;;;;4.63;1.90;;;;;;;;;;5089137;28;20163;-57
2024/04/02 07:57:38;;;;;;;2.60;1.40;;;;;;;;;;5089044;28;20168;-56
2024/04/02 08:00:05;;;;;;;2.70;1.80;;;;;;;;;;5070219;28;20186;-57
2024/04/02 08:02:31;;;;;;;3.43;2.57;;;;;;;;;;5089500;28;20558;-56
2024/04/02 08:04:57;;;;;;;4.87;1.83;;;;;;;;;;5088361;28;20202;-57
2024/04/02 08:07:23;;;;;;;4.20;2.13;;;;;;;;;;5089274;28;20219;-56
2024/04/02 08:09:49;;;;;;;6.10;2.30;;;;;;;;;;5091963;28;20164;-56
2024/04/02 08:12:15;;;;;;;7.17;2.23;;;;;;;;;;5092799;28;20168;-56
2024/04/02 08:14:41;;;;;;;5.17;2.10;;;;;;;;;;5092073;28;20180;-56
2024/04/02 08:17:07;;;;;;;6.00;2.10;;;;;;;;;;5092245;28;20203;-57
2024/04/02 08:19:34;;;;;;;5.03;2.03;;;;;;;;;;5073747;28;20166;-58
2024/04/02 08:22:00;;;;;;;4.37;2.43;;;;;;;;;;5091783;28;20285;-58
2024/04/02 08:24:26;;;;;;;3.67;1.80;;;;;;;;;;5092245;28;20603;-56
2024/04/02 08:26:52;;;;;;;4.80;2.03;;;;;;;;;;5092306;28;20211;-57
2024/04/02 08:29:18;;;;;;;7.63;2.23;;;;;;;;;;5092108;28;20172;-61
2024/04/02 08:31:44;;;;;;;4.77;2.07;;;;;;;;;;5092416;28;20148;-61
2024/04/02 08:34:11;;;;;;;2.60;1.80;;;;;;;;;;5092254;28;20164;-60
2024/04/02 08:36:37;;;;;;;3.63;1.93;;;;;;;;;;5092008;28;20267;-61
2024/04/02 08:39:04;;;;;;;5.70;2.50;;;;;;;;;;5091798;28;20607;-60
2024/04/02 08:41:30;;;;;;;2.20;1.30;;;;;;;;;;5092063;28;20259;-61
2024/04/02 08:43:57;;;;;;;5.87;1.93;;;;;;;;;;5091731;28;20260;-60
2024/04/02 08:46:23;;;;;;;4.50;1.77;;;;;;;;;;5092118;28;20164;-60
2024/04/02 08:48:51;;;;;;;5.53;1.97;;;;;;;;;;5091974;28;20210;-60
2024/04/02 08:51:17;;;;;;;4.20;1.70;;;;;;;;;;5091576;28;20204;-61
2024/04/02 08:53:43;;;;;;;5.83;1.80;;;;;;;;;;5091643;28;20711;-61
2024/04/02 08:56:10;;;;;;;3.20;1.63;;;;;;;;;;5092088;28;20167;-60
2024/04/02 08:58:36;;;;;;;3.10;1.60;;;;;;;;;;5091212;28;20172;-61
2024/04/02 09:01:04;;;;;;;3.60;1.80;;;;;;;;;;5091716;28;20172;-61
2024/04/02 09:03:30;;;;;;;3.90;1.60;;;;;;;;;;5091797;28;20665;-61
2024/04/02 09:05:59;;;;;;;2.73;1.77;;;;;;;;;;5091061;28;20168;-61
2024/04/02 09:08:25;;;;;;;8.00;2.13;;;;;;;;;;5091289;28;20214;-61
2024/04/02 09:10:51;;;;;;;3.53;1.60;;;;;;;;;;5091520;28;20190;-60
2024/04/02 09:13:17;;;;;;;3.97;2.20;;;;;;;;;;5072852;28;20174;-61
2024/04/02 09:15:43;;;;;;;5.70;2.10;;;;;;;;;;5091355;28;20164;-61
2024/04/02 09:18:09;;;;;;;3.97;1.60;;;;;;;;;;5091520;28;20282;-60
2024/04/02 09:20:36;;;;;;;9.47;2.00;;;;;;;;;;5090121;28;20302;-61
2024/04/02 09:23:02;;;;;;;3.90;1.90;;;;;;;;;;5090659;28;20246;-61
2024/04/02 09:25:28;;;;;;;2.87;1.93;;;;;;;;;;5091375;28;20164;-61
2024/04/02 09:27:54;;;;;;;9.03;2.23;;;;;;;;;;5091285;28;20706;-54
2024/04/02 09:30:24;;;;;;;4.73;2.63;;;;;;;;;;5090727;28;20263;-59
2024/04/02 09:32:52;;;;;;;5.53;2.60;;;;;;;;;;5091545;28;20709;-59
2024/04/02 09:35:29;;;;;;;6.23;3.07;;;;;;;;;;5090980;28;20710;-60
2024/04/02 09:37:55;;;;;;;5.13;3.40;;;;;;;;;;5090679;28;20213;-62
2024/04/02 09:40:22;;;;;;;4.87;2.30;;;;;;;;;;5091081;28;20622;-62
2024/04/02 09:42:49;;;;;;;2.80;1.70;;;;;;;;;;5091108;28;20580;-62
2024/04/02 09:45:17;;;;;;;6.13;2.27;;;;;;;;;;5090391;28;20187;-60
2024/04/02 09:47:44;;;;;;;3.27;1.77;;;;;;;;;;5090987;28;20687;-59
2024/04/02 09:50:10;;;;;;;4.60;2.03;;;;;;;;;;5090216;28;20168;-58
2024/04/02 09:52:37;;;;;;;7.10;2.00;;;;;;;;;;5091109;28;20221;-62
2024/04/02 09:55:03;;;;;;;3.27;1.53;;;;;;;;;;5090426;28;20258;-60
2024/04/02 09:57:31;;;;;;;3.47;1.50;;;;;;;;;;5090528;28;20156;-61
2024/04/02 09:59:57;;;;;;;3.77;1.70;;;;;;;;;;5089768;28;20163;-64
2024/04/02 10:02:25;;;;;;;5.93;2.13;;;;;;;;;;5090521;28;20514;-64
2024/04/02 10:04:52;;;;;;;5.23;1.50;;;;;;;;;;5089724;28;20279;-63
2024/04/02 10:07:28;;;;;;;3.27;1.60;;;;;;;;;;5090146;28;20207;-63
2024/04/02 10:09:56;;;;;;;3.23;1.70;;;;;;;;;;5089796;28;20187;-64
2024/04/02 10:12:26;;;;;;;4.17;1.40;;;;;;;;;;5090646;28;20168;-63
2024/04/02 10:14:52;;;;;;;4.07;1.73;;;;;;;;;;5089690;28;20568;-62
2024/04/02 10:17:18;;;;;;;3.73;1.83;;;;;;;;;;5090166;28;20675;-61
2024/04/02 10:19:47;;;;;;;3.97;1.67;;;;;;;;;;5089657;28;20176;-61
2024/04/02 10:22:13;;;;;;;4.93;2.10;;;;;;;;;;5089701;28;20571;-61
2024/04/02 10:24:39;;;;;;;3.90;1.67;;;;;;;;;;5089824;28;20176;-62
2024/04/02 10:27:08;;;;;;;4.60;1.87;;;;;;;;;;5090032;28;20603;-61
2024/04/02 10:29:34;;;;;;;2.97;2.17;;;;;;;;;;5089268;28;20167;-61
2024/04/02 10:32:02;;;;;;;3.43;1.50;;;;;;;;;;5090076;28;20156;-61
2024/04/02 10:34:29;;;;;;;4.50;1.97;;;;;;;;;;5090104;28;20694;-61
2024/04/02 10:36:56;;;;;;;3.33;1.80;;;;;;;;;;5089532;28;20187;-61
2024/04/02 10:39:22;;;;;;;3.30;1.80;;;;;;;;;;5089544;28;20181;-63
2024/04/02 10:41:48;;;;;;;6.70;2.23;;;;;;;;;;5090162;28;20527;-60
2024/04/02 10:44:18;;;;;;;2.90;1.60;;;;;;;;;;5089229;28;20241;-61
2024/04/02 10:46:44;;;;;;;6.23;1.77;;;;;;;;;;5089852;28;20345;-61
2024/04/02 10:49:10;;;;;;;5.27;2.10;;;;;;;;;;5089315;28;20179;-61
2024/04/02 10:51:36;;;;;;;3.40;1.87;;;;;;;;;;5089459;28;20195;-61
2024/04/02 10:54:03;;;;;;;4.90;1.87;;;;;;;;;;5089346;28;20218;-61
2024/04/02 10:56:30;;;;;;;2.37;1.60;;;;;;;;;;5089781;28;20173;-61
2024/04/02 10:58:57;;;;;;;3.97;2.03;;;;;;;;;;5088907;28;20538;-60
2024/04/02 11:01:23;;;;;;;4.10;1.87;;;;;;;;;;5089244;28;20272;-61
2024/04/02 11:03:50;;;;;;;3.50;1.70;;;;;;;;;;5089576;28;20596;-62
2024/04/02 11:06:16;;;;;;;3.97;1.70;;;;;;;;;;5088877;28;20189;-60
2024/04/02 11:08:44;;;;;;;4.40;1.77;;;;;;;;;;5088757;28;20264;-60
2024/04/02 11:11:19;;;;;;;4.23;1.73;;;;;;;;;;5089030;28;20179;-60
2024/04/02 11:13:45;;;;;;;2.53;1.50;;;;;;;;;;5088836;28;20164;-61
2024/04/02 11:16:11;;;;;;;3.70;1.75;;;;;;;;;;5088094;28;20404;-60
2024/04/02 11:18:37;;;;;;;3.17;1.53;;;;;;;;;;5089012;28;20196;-61
2024/04/02 11:21:03;;;;;;;3.40;1.80;;;;;;;;;;5088426;28;20168;-61
2024/04/02 11:26:16;;;;;;;3.53;1.90;;;;;;;;;;5089218;28;20187;-60
2024/04/02 11:28:43;;;;;;;5.57;1.53;;;;;;;;;;5088868;28;20257;-61
2024/04/02 11:31:12;;;;;;;8.03;1.93;;;;;;;;;;5088929;28;20169;-60
2024/04/02 11:33:39;;;;;;;4.57;1.77;;;;;;;;;;5071051;28;20191;-60
2024/04/02 11:36:07;;;;;;;6.17;1.90;;;;;;;;;;5092616;28;20179;-60
2024/04/02 11:38:33;;;;;;;4.70;2.00;;;;;;;;;;5109340;28;20179;-61
2024/04/02 11:40:59;;;;;;;3.50;1.50;;;;;;;;;;5109217;28;20616;-62
2024/04/02 11:43:25;;;;;;;2.73;1.73;;;;;;;;;;5110379;28;20175;-61
2024/04/02 11:45:52;;;;;;;3.37;1.80;;;;;;;;;;5113375;28;20175;-60
2024/04/02 11:48:18;;;;;;;4.60;2.13;;;;;;;;;;5113387;28;20199;-60
2024/04/02 11:50:47;;;;;;;4.87;2.27;;;;;;;;;;5113082;28;20188;-60
2024/04/02 11:53:13;;;;;;;3.17;1.47;;;;;;;;;;5112842;28;20160;-60
2024/04/02 11:55:42;;;;;;;3.57;1.80;;;;;;;;;;5113276;28;20188;-61
2024/04/02 12:00:53;;;;;;;2.07;1.60;;;;;;;;;;5113228;28;20178;-63
2024/04/02 12:03:19;;;;;;;4.27;1.70;;;;;;;;;;5113359;28;20524;-60
2024/04/02 12:05:45;;;;;;;6.00;1.90;;;;;;;;;;5112601;28;20249;-63
2024/04/02 12:08:11;;;;;;;2.50;1.63;;;;;;;;;;5112595;28;20203;-63
2024/04/02 12:10:37;;;;;;;2.47;1.73;;;;;;;;;;5113350;28;20532;-60
2024/04/02 12:13:04;;;;;;;1.93;1.70;;;;;;;;;;5113369;28;20167;-58
2024/04/02 12:15:30;;;;;;;4.30;1.80;;;;;;;;;;5112500;28;20420;-58
2024/04/02 12:17:59;;;;;;;6.53;1.70;;;;;;;;;;5112507;28;20199;-58
2024/04/02 12:20:25;;;;;;;4.67;2.00;;;;;;;;;;5112400;28;20176;-57
2024/04/02 12:22:51;;;;;;;5.03;1.80;;;;;;;;;;5112291;28;20262;-59
2024/04/02 12:25:17;;;;;;;2.67;1.60;;;;;;;;;;5112979;28;20159;-58
2024/04/02 12:27:43;;;;;;;3.87;1.67;;;;;;;;;;5112710;28;20246;-58
2024/04/02 12:30:09;;;;;;;7.20;2.03;;;;;;;;;;5112090;28;20155;-57
2024/04/02 12:32:38;;;;;;;5.20;1.60;;;;;;;;;;5112766;28;20220;-57
2024/04/02 12:35:04;;;;;;;3.97;1.77;;;;;;;;;;5111919;28;20193;-57
2024/04/02 12:37:30;;;;;;;3.87;1.93;;;;;;;;;;5094179;28;20646;-56
2024/04/02 12:39:56;;;;;;;3.10;1.73;;;;;;;;;;5112184;28;20771;-57
2024/04/02 12:42:22;;;;;;;2.57;1.67;;;;;;;;;;5112590;28;20196;-57
2024/04/02 12:44:48;;;;;;;6.13;1.80;;;;;;;;;;5112271;28;20179;-59
2024/04/02 12:47:15;;;;;;;3.13;1.87;;;;;;;;;;5112463;28;20274;-57
2024/04/02 12:49:42;;;;;;;4.07;2.00;;;;;;;;;;5112549;28;20698;-57
2024/04/02 12:52:08;;;;;;;4.87;1.90;;;;;;;;;;5111923;28;20300;-57
2024/04/02 12:54:34;;;;;;;6.43;2.50;;;;;;;;;;5111928;28;20163;-57
2024/04/02 12:57:01;;;;;;;4.60;2.43;;;;;;;;;;5112268;28;20637;-57
2024/04/02 12:59:27;;;;;;;6.30;1.77;;;;;;;;;;5111595;28;20262;-58
2024/04/02 13:01:53;;;;;;;5.53;1.80;;;;;;;;;;5111874;28;20182;-62
2024/04/02 13:04:23;;;;;;;4.93;1.90;;;;;;;;;;5112069;28;20151;-57
2024/04/02 13:06:49;;;;;;;2.10;1.80;;;;;;;;;;5111553;28;20159;-58
2024/04/02 13:09:15;;;;;;;3.77;1.57;;;;;;;;;;5111416;28;20209;-57
2024/04/02 13:11:41;;;;;;;2.90;1.57;;;;;;;;;;5112023;28;20159;-59
2024/04/02 13:14:07;;;;;;;4.37;2.03;;;;;;;;;;5111501;28;20155;-59
2024/04/02 13:16:36;;;;;;;2.50;2.00;;;;;;;;;;5111695;28;20694;-58
2024/04/02 13:19:04;;;;;;;4.73;1.70;;;;;;;;;;5111725;28;20690;-59
2024/04/02 13:21:30;;;;;;;4.53;1.93;;;;;;;;;;5111452;28;20164;-59
2024/04/02 13:23:57;;;;;;;2.60;1.60;;;;;;;;;;5111005;28;20234;-59
2024/04/02 13:26:24;;;;;;;6.37;2.40;;;;;;;;;;5111466;28;20170;-59
2024/04/02 13:28:54;;;;;;;4.87;1.87;;;;;;;;;;5110943;28;20203;-59
2024/04/02 13:31:21;;;;;;;2.73;1.97;;;;;;;;;;5111720;28;20151;-59
2024/04/02 13:33:47;;;;;;;4.67;1.83;;;;;;;;;;5111633;28;20965;-59
2024/04/02 13:36:14;;;;;;;3.47;1.47;;;;;;;;;;5105815;28;20520;-59
2024/04/02 13:38:42;;;;;;;6.27;1.53;;;;;;;;;;5090787;28;20557;-59
2024/04/02 13:41:08;;;;;;;3.67;1.83;;;;;;;;;;5091075;28;20683;-59
2024/04/02 13:43:34;;;;;;;2.73;1.73;;;;;;;;;;5090626;28;20722;-59
2024/04/02 13:46:00;;;;;;;6.37;1.97;;;;;;;;;;5090983;28;20504;-59
2024/04/02 13:48:33;;;;;;;5.60;2.43;;;;;;;;;;5090836;28;20673;-59
2024/04/02 13:51:05;;;;;;;5.87;1.90;;;;;;;;;;5090259;28;20187;-59
2024/04/02 13:53:32;;;;;;;3.77;1.80;;;;;;;;;;5090440;28;20250;-59
2024/04/02 13:55:59;;;;;;;2.90;1.80;;;;;;;;;;5090606;28;20175;-59
2024/04/02 13:58:25;;;;;;;6.17;2.10;;;;;;;;;;5090046;28;20663;-59
2024/04/02 14:00:52;;;;;;;4.83;1.93;;;;;;;;;;5090154;28;20259;-59
2024/04/02 14:03:18;;;;;;;5.10;1.77;;;;;;;;;;5090547;28;20669;-59
2024/04/02 14:05:44;;;;;;;5.00;2.07;;;;;;;;;;5089620;28;20619;-59
2024/04/02 14:08:11;;;;;;;6.17;1.90;;;;;;;;;;5089916;28;20228;-59
2024/04/02 14:10:37;;;;;;;5.83;2.00;;;;;;;;;;5090415;28;20157;-59
2024/04/02 14:13:10;;;;;;;3.53;1.60;;;;;;;;;;5090171;28;20179;-59
2024/04/02 14:15:37;;;;;;;4.73;2.00;;;;;;;;;;5090309;28;20163;-59
2024/04/02 14:18:03;;;;;;;4.70;2.20;;;;;;;;;;5090051;28;20204;-59
2024/04/02 14:20:29;;;;;;;4.20;2.50;;;;;;;;;;5088003;28;20168;-59
2024/04/02 14:22:55;;;;;;;4.63;2.10;;;;;;;;;;5089400;28;20228;-57
2024/04/02 14:25:21;;;;;;;4.13;2.13;;;;;;;;;;5089706;28;20164;-57
2024/04/02 14:27:47;;;;;;;2.63;1.50;;;;;;;;;;5089795;28;20196;-57
2024/04/02 14:30:14;;;;;;;2.87;1.80;;;;;;;;;;5089629;28;20180;-57
2024/04/02 14:32:40;;;;;;;5.07;2.17;;;;;;;;;;5090183;28;20635;-57
2024/04/02 14:35:06;;;;;;;4.43;2.07;;;;;;;;;;5089318;28;20160;-56
2024/04/02 14:37:32;;;;;;;5.47;2.40;;;;;;;;;;5089850;28;20191;-56
2024/04/02 14:39:58;;;;;;;6.77;2.70;;;;;;;;;;5089413;28;20667;-57
2024/04/02 14:42:24;;;;;;;4.67;2.40;;;;;;;;;;5090041;28;20607;-56
2024/04/02 14:44:54;;;;;;;3.87;2.57;;;;;;;;;;5089595;28;20715;-57